sensor_id;sensor_type;location;lat;lon;timestamp;P1;durP1;ratioP1;P2;durP2;ratioP2
12725;SDS011;6427;49.754;6.106;2023-12-07T00:01:56;16.67;;;9.87;;
12725;SDS011;6427;49.754;6.106;2023-12-07T00:04:23;19.02;;;12.25;;
12725;SDS011;6427;49.754;6.106;2023-12-07T00:06:51;20.53;;;10.73;;
12725;SDS011;6427;49.754;6.106;2023-12-07T00:09:18;17.97;;;9.23;;
12725;SDS011;6427;49.754;6.106;2023-12-07T00:11:46;16.87;;;9.63;;
12725;SDS011;6427;49.754;6.106;2023-12-07T00:14:14;15.80;;;9.30;;
12725;SDS011;6427;49.754;6.106;2023-12-07T00:16:41;17.77;;;9.43;;
12725;SDS011;6427;49.754;6.106;2023-12-07T00:19:09;21.27;;;9.77;;
12725;SDS011;6427;49.754;6.106;2023-12-07T00:21:37;17.87;;;9.97;;
12725;SDS011;6427;49.754;6.106;2023-12-07T00:24:05;21.93;;;10.73;;
12725;SDS011;6427;49.754;6.106;2023-12-07T00:26:32;17.30;;;10.33;;
12725;SDS011;6427;49.754;6.106;2023-12-07T00:29:00;20.47;;;9.93;;
12725;SDS011;6427;49.754;6.106;2023-12-07T00:31:28;18.47;;;10.90;;
12725;SDS011;6427;49.754;6.106;2023-12-07T00:33:55;16.97;;;10.40;;
12725;SDS011;6427;49.754;6.106;2023-12-07T00:36:23;23.07;;;10.07;;
12725;SDS011;6427;49.754;6.106;2023-12-07T00:38:50;16.73;;;9.20;;
12725;SDS011;6427;49.754;6.106;2023-12-07T00:41:18;23.57;;;10.10;;
12725;SDS011;6427;49.754;6.106;2023-12-07T00:43:46;15.57;;;8.97;;
12725;SDS011;6427;49.754;6.106;2023-12-07T00:46:13;17.57;;;10.07;;
12725;SDS011;6427;49.754;6.106;2023-12-07T00:48:41;20.07;;;10.07;;
12725;SDS011;6427;49.754;6.106;2023-12-07T00:51:09;12.20;;;8.50;;
12725;SDS011;6427;49.754;6.106;2023-12-07T00:53:36;15.10;;;8.17;;
12725;SDS011;6427;49.754;6.106;2023-12-07T00:56:04;14.83;;;8.30;;
12725;SDS011;6427;49.754;6.106;2023-12-07T00:58:31;14.33;;;9.73;;
12725;SDS011;6427;49.754;6.106;2023-12-07T01:00:59;17.50;;;8.60;;
12725;SDS011;6427;49.754;6.106;2023-12-07T01:03:26;16.63;;;9.33;;
12725;SDS011;6427;49.754;6.106;2023-12-07T01:05:54;15.23;;;8.63;;
12725;SDS011;6427;49.754;6.106;2023-12-07T01:08:22;16.30;;;8.57;;
12725;SDS011;6427;49.754;6.106;2023-12-07T01:10:49;19.20;;;9.00;;
12725;SDS011;6427;49.754;6.106;2023-12-07T01:13:17;13.17;;;8.77;;
12725;SDS011;6427;49.754;6.106;2023-12-07T01:15:44;15.47;;;9.30;;
12725;SDS011;6427;49.754;6.106;2023-12-07T01:18:12;14.17;;;8.83;;
12725;SDS011;6427;49.754;6.106;2023-12-07T01:20:40;17.87;;;10.95;;
12725;SDS011;6427;49.754;6.106;2023-12-07T01:23:07;13.50;;;8.10;;
12725;SDS011;6427;49.754;6.106;2023-12-07T01:25:37;15.43;;;7.90;;
12725;SDS011;6427;49.754;6.106;2023-12-07T01:28:05;13.77;;;8.53;;
12725;SDS011;6427;49.754;6.106;2023-12-07T01:30:33;13.73;;;8.33;;
12725;SDS011;6427;49.754;6.106;2023-12-07T01:33:00;14.33;;;8.40;;
12725;SDS011;6427;49.754;6.106;2023-12-07T01:35:28;13.23;;;9.30;;
12725;SDS011;6427;49.754;6.106;2023-12-07T01:37:56;14.38;;;9.70;;
12725;SDS011;6427;49.754;6.106;2023-12-07T01:40:24;12.13;;;8.43;;
12725;SDS011;6427;49.754;6.106;2023-12-07T01:42:52;15.93;;;8.43;;
12725;SDS011;6427;49.754;6.106;2023-12-07T01:45:19;16.60;;;8.07;;
12725;SDS011;6427;49.754;6.106;2023-12-07T01:47:47;14.53;;;8.43;;
12725;SDS011;6427;49.754;6.106;2023-12-07T01:50:14;11.57;;;7.37;;
12725;SDS011;6427;49.754;6.106;2023-12-07T01:52:45;11.90;;;7.57;;
12725;SDS011;6427;49.754;6.106;2023-12-07T01:55:13;14.37;;;8.60;;
12725;SDS011;6427;49.754;6.106;2023-12-07T01:57:41;12.70;;;7.60;;
12725;SDS011;6427;49.754;6.106;2023-12-07T02:00:09;11.03;;;6.70;;
12725;SDS011;6427;49.754;6.106;2023-12-07T02:02:36;10.40;;;5.63;;
12725;SDS011;6427;49.754;6.106;2023-12-07T02:05:04;9.93;;;5.80;;
12725;SDS011;6427;49.754;6.106;2023-12-07T02:07:31;10.67;;;5.93;;
12725;SDS011;6427;49.754;6.106;2023-12-07T02:09:59;12.87;;;6.73;;
12725;SDS011;6427;49.754;6.106;2023-12-07T02:12:27;12.00;;;6.27;;
12725;SDS011;6427;49.754;6.106;2023-12-07T02:14:54;10.20;;;6.50;;
12725;SDS011;6427;49.754;6.106;2023-12-07T02:22:41;11.50;;;6.87;;
12725;SDS011;6427;49.754;6.106;2023-12-07T02:25:07;12.43;;;6.53;;
12725;SDS011;6427;49.754;6.106;2023-12-07T02:27:42;9.60;;;6.40;;
12725;SDS011;6427;49.754;6.106;2023-12-07T02:30:06;16.37;;;7.20;;
12725;SDS011;6427;49.754;6.106;2023-12-07T02:32:33;11.37;;;6.90;;
12725;SDS011;6427;49.754;6.106;2023-12-07T02:35:00;9.00;;;6.10;;
12725;SDS011;6427;49.754;6.106;2023-12-07T02:37:28;12.43;;;6.67;;
12725;SDS011;6427;49.754;6.106;2023-12-07T02:39:56;13.93;;;6.77;;
12725;SDS011;6427;49.754;6.106;2023-12-07T02:42:24;11.90;;;6.87;;
12725;SDS011;6427;49.754;6.106;2023-12-07T02:44:51;10.67;;;6.27;;
12725;SDS011;6427;49.754;6.106;2023-12-07T02:47:18;12.43;;;7.30;;
12725;SDS011;6427;49.754;6.106;2023-12-07T02:49:46;10.33;;;6.03;;
12725;SDS011;6427;49.754;6.106;2023-12-07T02:52:14;10.60;;;6.53;;
12725;SDS011;6427;49.754;6.106;2023-12-07T02:54:43;10.50;;;6.40;;
12725;SDS011;6427;49.754;6.106;2023-12-07T02:57:10;11.47;;;6.40;;
12725;SDS011;6427;49.754;6.106;2023-12-07T02:59:38;9.57;;;6.73;;
12725;SDS011;6427;49.754;6.106;2023-12-07T03:02:07;12.93;;;7.03;;
12725;SDS011;6427;49.754;6.106;2023-12-07T03:04:34;12.53;;;6.67;;
12725;SDS011;6427;49.754;6.106;2023-12-07T03:07:02;10.30;;;6.80;;
12725;SDS011;6427;49.754;6.106;2023-12-07T03:09:30;15.10;;;7.70;;
12725;SDS011;6427;49.754;6.106;2023-12-07T03:11:57;10.47;;;6.97;;
12725;SDS011;6427;49.754;6.106;2023-12-07T03:14:25;9.90;;;6.60;;
12725;SDS011;6427;49.754;6.106;2023-12-07T03:16:53;12.45;;;8.45;;
12725;SDS011;6427;49.754;6.106;2023-12-07T03:19:21;9.67;;;6.50;;
12725;SDS011;6427;49.754;6.106;2023-12-07T03:21:49;14.00;;;8.30;;
12725;SDS011;6427;49.754;6.106;2023-12-07T03:24:17;12.60;;;6.70;;
12725;SDS011;6427;49.754;6.106;2023-12-07T03:26:44;12.43;;;6.67;;
12725;SDS011;6427;49.754;6.106;2023-12-07T03:29:12;10.13;;;6.80;;
12725;SDS011;6427;49.754;6.106;2023-12-07T03:31:40;12.20;;;6.63;;
12725;SDS011;6427;49.754;6.106;2023-12-07T03:34:07;8.83;;;5.73;;
12725;SDS011;6427;49.754;6.106;2023-12-07T03:36:35;13.50;;;6.93;;
12725;SDS011;6427;49.754;6.106;2023-12-07T03:39:02;7.47;;;5.67;;
12725;SDS011;6427;49.754;6.106;2023-12-07T03:41:30;12.97;;;6.33;;
12725;SDS011;6427;49.754;6.106;2023-12-07T03:43:57;10.40;;;6.37;;
12725;SDS011;6427;49.754;6.106;2023-12-07T03:46:25;12.37;;;6.37;;
12725;SDS011;6427;49.754;6.106;2023-12-07T03:48:53;12.63;;;7.13;;
12725;SDS011;6427;49.754;6.106;2023-12-07T03:51:20;10.43;;;6.40;;
12725;SDS011;6427;49.754;6.106;2023-12-07T03:53:48;10.93;;;7.10;;
12725;SDS011;6427;49.754;6.106;2023-12-07T03:56:26;12.47;;;7.47;;
12725;SDS011;6427;49.754;6.106;2023-12-07T03:58:54;12.10;;;6.97;;
12725;SDS011;6427;49.754;6.106;2023-12-07T04:01:22;11.60;;;7.17;;
12725;SDS011;6427;49.754;6.106;2023-12-07T04:03:49;12.50;;;6.90;;
12725;SDS011;6427;49.754;6.106;2023-12-07T04:06:17;11.27;;;6.57;;
12725;SDS011;6427;49.754;6.106;2023-12-07T04:08:44;10.67;;;6.67;;
12725;SDS011;6427;49.754;6.106;2023-12-07T04:11:12;12.47;;;6.57;;
12725;SDS011;6427;49.754;6.106;2023-12-07T04:13:39;10.20;;;6.67;;
12725;SDS011;6427;49.754;6.106;2023-12-07T04:16:07;10.93;;;6.43;;
12725;SDS011;6427;49.754;6.106;2023-12-07T04:18:35;8.83;;;6.47;;
12725;SDS011;6427;49.754;6.106;2023-12-07T04:21:03;10.77;;;6.97;;
12725;SDS011;6427;49.754;6.106;2023-12-07T04:23:31;11.60;;;6.77;;
12725;SDS011;6427;49.754;6.106;2023-12-07T04:25:59;14.40;;;7.30;;
12725;SDS011;6427;49.754;6.106;2023-12-07T04:28:27;12.83;;;6.87;;
12725;SDS011;6427;49.754;6.106;2023-12-07T04:30:54;10.27;;;6.83;;
12725;SDS011;6427;49.754;6.106;2023-12-07T04:33:22;11.53;;;7.10;;
12725;SDS011;6427;49.754;6.106;2023-12-07T04:35:49;13.03;;;8.67;;
12725;SDS011;6427;49.754;6.106;2023-12-07T04:38:17;9.47;;;7.20;;
12725;SDS011;6427;49.754;6.106;2023-12-07T04:40:45;14.10;;;7.23;;
12725;SDS011;6427;49.754;6.106;2023-12-07T04:43:12;14.17;;;7.20;;
12725;SDS011;6427;49.754;6.106;2023-12-07T04:45:40;13.17;;;7.20;;
12725;SDS011;6427;49.754;6.106;2023-12-07T04:48:08;13.70;;;9.00;;
12725;SDS011;6427;49.754;6.106;2023-12-07T04:50:36;12.23;;;8.03;;
12725;SDS011;6427;49.754;6.106;2023-12-07T04:53:04;10.43;;;7.37;;
12725;SDS011;6427;49.754;6.106;2023-12-07T04:55:32;12.83;;;7.53;;
12725;SDS011;6427;49.754;6.106;2023-12-07T04:57:59;12.37;;;7.50;;
12725;SDS011;6427;49.754;6.106;2023-12-07T05:00:27;13.23;;;8.10;;
12725;SDS011;6427;49.754;6.106;2023-12-07T05:02:55;13.20;;;7.90;;
12725;SDS011;6427;49.754;6.106;2023-12-07T05:05:22;15.30;;;9.80;;
12725;SDS011;6427;49.754;6.106;2023-12-07T05:07:50;14.55;;;10.90;;
12725;SDS011;6427;49.754;6.106;2023-12-07T05:10:17;14.30;;;9.43;;
12725;SDS011;6427;49.754;6.106;2023-12-07T05:12:45;16.33;;;11.23;;
12725;SDS011;6427;49.754;6.106;2023-12-07T05:15:13;16.27;;;11.45;;
12725;SDS011;6427;49.754;6.106;2023-12-07T05:17:41;12.97;;;8.93;;
12725;SDS011;6427;49.754;6.106;2023-12-07T05:20:09;14.80;;;8.20;;
12725;SDS011;6427;49.754;6.106;2023-12-07T05:22:36;15.73;;;8.33;;
12725;SDS011;6427;49.754;6.106;2023-12-07T05:25:05;15.23;;;7.93;;
12725;SDS011;6427;49.754;6.106;2023-12-07T05:27:32;13.93;;;8.33;;
12725;SDS011;6427;49.754;6.106;2023-12-07T05:30:00;16.67;;;8.50;;
12725;SDS011;6427;49.754;6.106;2023-12-07T05:32:27;14.80;;;8.13;;
12725;SDS011;6427;49.754;6.106;2023-12-07T05:34:55;14.90;;;9.00;;
12725;SDS011;6427;49.754;6.106;2023-12-07T05:37:23;15.13;;;9.73;;
12725;SDS011;6427;49.754;6.106;2023-12-07T05:39:50;15.83;;;9.57;;
12725;SDS011;6427;49.754;6.106;2023-12-07T05:42:18;15.63;;;9.00;;
12725;SDS011;6427;49.754;6.106;2023-12-07T05:44:45;14.80;;;8.83;;
12725;SDS011;6427;49.754;6.106;2023-12-07T05:47:13;16.63;;;9.47;;
12725;SDS011;6427;49.754;6.106;2023-12-07T05:49:41;18.57;;;10.30;;
12725;SDS011;6427;49.754;6.106;2023-12-07T05:52:08;20.10;;;9.47;;
12725;SDS011;6427;49.754;6.106;2023-12-07T05:54:38;14.10;;;8.63;;
12725;SDS011;6427;49.754;6.106;2023-12-07T05:57:05;15.33;;;8.70;;
12725;SDS011;6427;49.754;6.106;2023-12-07T05:59:36;24.57;;;10.23;;
12725;SDS011;6427;49.754;6.106;2023-12-07T06:02:01;19.27;;;10.87;;
12725;SDS011;6427;49.754;6.106;2023-12-07T06:04:29;12.10;;;8.23;;
12725;SDS011;6427;49.754;6.106;2023-12-07T06:06:56;17.07;;;7.60;;
12725;SDS011;6427;49.754;6.106;2023-12-07T06:09:24;12.20;;;7.50;;
12725;SDS011;6427;49.754;6.106;2023-12-07T06:11:51;13.77;;;7.67;;
12725;SDS011;6427;49.754;6.106;2023-12-07T06:14:20;14.65;;;9.30;;
12725;SDS011;6427;49.754;6.106;2023-12-07T06:16:47;14.27;;;8.13;;
12725;SDS011;6427;49.754;6.106;2023-12-07T06:19:15;14.63;;;8.30;;
12725;SDS011;6427;49.754;6.106;2023-12-07T06:21:43;16.60;;;8.80;;
12725;SDS011;6427;49.754;6.106;2023-12-07T06:24:10;12.90;;;8.93;;
12725;SDS011;6427;49.754;6.106;2023-12-07T06:26:38;19.63;;;11.93;;
12725;SDS011;6427;49.754;6.106;2023-12-07T06:29:05;14.57;;;10.50;;
12725;SDS011;6427;49.754;6.106;2023-12-07T06:31:33;15.97;;;10.47;;
12725;SDS011;6427;49.754;6.106;2023-12-07T06:34:00;19.43;;;10.83;;
12725;SDS011;6427;49.754;6.106;2023-12-07T06:36:28;17.17;;;9.70;;
12725;SDS011;6427;49.754;6.106;2023-12-07T06:38:56;13.27;;;8.97;;
12725;SDS011;6427;49.754;6.106;2023-12-07T06:41:23;17.33;;;11.83;;
12725;SDS011;6427;49.754;6.106;2023-12-07T06:43:51;15.90;;;9.77;;
12725;SDS011;6427;49.754;6.106;2023-12-07T06:46:18;16.97;;;9.27;;
12725;SDS011;6427;49.754;6.106;2023-12-07T06:48:46;13.20;;;8.47;;
12725;SDS011;6427;49.754;6.106;2023-12-07T06:51:14;16.12;;;10.00;;
12725;SDS011;6427;49.754;6.106;2023-12-07T06:53:42;15.15;;;11.15;;
12725;SDS011;6427;49.754;6.106;2023-12-07T06:56:10;16.63;;;9.60;;
12725;SDS011;6427;49.754;6.106;2023-12-07T06:58:38;17.57;;;9.27;;
12725;SDS011;6427;49.754;6.106;2023-12-07T07:01:06;13.83;;;8.60;;
12725;SDS011;6427;49.754;6.106;2023-12-07T07:03:34;13.30;;;9.17;;
12725;SDS011;6427;49.754;6.106;2023-12-07T07:06:02;17.40;;;9.10;;
12725;SDS011;6427;49.754;6.106;2023-12-07T07:08:29;12.20;;;7.83;;
12725;SDS011;6427;49.754;6.106;2023-12-07T07:10:57;14.23;;;8.30;;
12725;SDS011;6427;49.754;6.106;2023-12-07T07:13:24;14.10;;;8.13;;
12725;SDS011;6427;49.754;6.106;2023-12-07T07:15:52;16.30;;;8.40;;
12725;SDS011;6427;49.754;6.106;2023-12-07T07:18:20;17.67;;;8.90;;
12725;SDS011;6427;49.754;6.106;2023-12-07T07:20:48;15.73;;;8.87;;
12725;SDS011;6427;49.754;6.106;2023-12-07T07:23:15;21.07;;;12.20;;
12725;SDS011;6427;49.754;6.106;2023-12-07T07:25:43;17.87;;;8.97;;
12725;SDS011;6427;49.754;6.106;2023-12-07T07:28:11;15.97;;;9.20;;
12725;SDS011;6427;49.754;6.106;2023-12-07T07:30:38;13.87;;;8.77;;
12725;SDS011;6427;49.754;6.106;2023-12-07T07:33:06;15.33;;;10.07;;
12725;SDS011;6427;49.754;6.106;2023-12-07T07:35:33;15.40;;;8.53;;
12725;SDS011;6427;49.754;6.106;2023-12-07T07:38:01;14.43;;;9.03;;
12725;SDS011;6427;49.754;6.106;2023-12-07T07:40:29;15.93;;;9.43;;
12725;SDS011;6427;49.754;6.106;2023-12-07T07:42:56;16.20;;;9.13;;
12725;SDS011;6427;49.754;6.106;2023-12-07T07:45:24;16.10;;;8.07;;
12725;SDS011;6427;49.754;6.106;2023-12-07T07:47:52;17.33;;;11.45;;
12725;SDS011;6427;49.754;6.106;2023-12-07T07:50:20;13.63;;;8.40;;
12725;SDS011;6427;49.754;6.106;2023-12-07T07:52:47;14.95;;;10.00;;
12725;SDS011;6427;49.754;6.106;2023-12-07T07:55:15;16.87;;;9.50;;
12725;SDS011;6427;49.754;6.106;2023-12-07T07:57:42;15.07;;;8.83;;
12725;SDS011;6427;49.754;6.106;2023-12-07T08:00:10;16.83;;;9.10;;
12725;SDS011;6427;49.754;6.106;2023-12-07T08:02:39;18.73;;;11.40;;
12725;SDS011;6427;49.754;6.106;2023-12-07T08:05:06;16.83;;;10.20;;
12725;SDS011;6427;49.754;6.106;2023-12-07T08:07:34;20.00;;;10.00;;
12725;SDS011;6427;49.754;6.106;2023-12-07T08:10:01;18.23;;;11.40;;
12725;SDS011;6427;49.754;6.106;2023-12-07T08:12:29;19.87;;;10.17;;
12725;SDS011;6427;49.754;6.106;2023-12-07T08:14:56;15.37;;;9.30;;
12725;SDS011;6427;49.754;6.106;2023-12-07T08:17:24;17.50;;;9.33;;
12725;SDS011;6427;49.754;6.106;2023-12-07T08:19:52;14.43;;;8.83;;
12725;SDS011;6427;49.754;6.106;2023-12-07T08:22:19;16.27;;;10.60;;
12725;SDS011;6427;49.754;6.106;2023-12-07T08:24:47;17.23;;;9.00;;
12725;SDS011;6427;49.754;6.106;2023-12-07T08:27:14;15.10;;;9.17;;
12725;SDS011;6427;49.754;6.106;2023-12-07T08:29:42;16.05;;;9.88;;
12725;SDS011;6427;49.754;6.106;2023-12-07T08:32:10;11.60;;;8.27;;
12725;SDS011;6427;49.754;6.106;2023-12-07T08:34:37;12.47;;;8.77;;
12725;SDS011;6427;49.754;6.106;2023-12-07T08:37:06;17.13;;;9.17;;
12725;SDS011;6427;49.754;6.106;2023-12-07T08:39:33;15.97;;;7.57;;
12725;SDS011;6427;49.754;6.106;2023-12-07T08:42:01;16.55;;;10.48;;
12725;SDS011;6427;49.754;6.106;2023-12-07T08:44:29;16.77;;;10.48;;
12725;SDS011;6427;49.754;6.106;2023-12-07T08:46:57;15.20;;;8.50;;
12725;SDS011;6427;49.754;6.106;2023-12-07T08:49:24;21.03;;;11.70;;
12725;SDS011;6427;49.754;6.106;2023-12-07T08:51:52;15.53;;;9.00;;
12725;SDS011;6427;49.754;6.106;2023-12-07T08:54:20;17.37;;;8.43;;
12725;SDS011;6427;49.754;6.106;2023-12-07T08:56:47;14.53;;;7.57;;
12725;SDS011;6427;49.754;6.106;2023-12-07T08:59:15;14.20;;;8.10;;
12725;SDS011;6427;49.754;6.106;2023-12-07T09:01:42;16.63;;;9.23;;
12725;SDS011;6427;49.754;6.106;2023-12-07T09:04:10;17.23;;;8.63;;
12725;SDS011;6427;49.754;6.106;2023-12-07T09:06:37;13.27;;;7.67;;
12725;SDS011;6427;49.754;6.106;2023-12-07T09:09:05;13.87;;;7.97;;
12725;SDS011;6427;49.754;6.106;2023-12-07T09:11:33;17.00;;;8.47;;
12725;SDS011;6427;49.754;6.106;2023-12-07T09:14:00;12.37;;;8.37;;
12725;SDS011;6427;49.754;6.106;2023-12-07T09:16:28;14.27;;;9.50;;
12725;SDS011;6427;49.754;6.106;2023-12-07T09:18:55;16.03;;;9.77;;
12725;SDS011;6427;49.754;6.106;2023-12-07T09:21:23;16.93;;;9.90;;
12725;SDS011;6427;49.754;6.106;2023-12-07T09:23:51;31.90;;;17.30;;
12725;SDS011;6427;49.754;6.106;2023-12-07T09:26:18;17.57;;;10.07;;
12725;SDS011;6427;49.754;6.106;2023-12-07T09:28:46;16.70;;;8.37;;
12725;SDS011;6427;49.754;6.106;2023-12-07T09:31:13;13.07;;;8.23;;
12725;SDS011;6427;49.754;6.106;2023-12-07T09:33:41;12.27;;;6.87;;
12725;SDS011;6427;49.754;6.106;2023-12-07T09:36:09;17.10;;;9.27;;
12725;SDS011;6427;49.754;6.106;2023-12-07T09:38:37;15.73;;;8.87;;
12725;SDS011;6427;49.754;6.106;2023-12-07T09:41:05;13.93;;;8.07;;
12725;SDS011;6427;49.754;6.106;2023-12-07T09:43:32;19.23;;;12.80;;
12725;SDS011;6427;49.754;6.106;2023-12-07T09:46:00;19.97;;;12.50;;
12725;SDS011;6427;49.754;6.106;2023-12-07T09:48:27;18.93;;;10.57;;
12725;SDS011;6427;49.754;6.106;2023-12-07T09:50:55;19.50;;;11.93;;
12725;SDS011;6427;49.754;6.106;2023-12-07T09:53:23;17.10;;;10.00;;
12725;SDS011;6427;49.754;6.106;2023-12-07T09:55:51;16.37;;;9.67;;
12725;SDS011;6427;49.754;6.106;2023-12-07T09:58:19;14.50;;;8.90;;
12725;SDS011;6427;49.754;6.106;2023-12-07T10:00:47;18.67;;;10.03;;
12725;SDS011;6427;49.754;6.106;2023-12-07T10:03:20;17.90;;;11.20;;
12725;SDS011;6427;49.754;6.106;2023-12-07T10:05:55;16.07;;;9.20;;
12725;SDS011;6427;49.754;6.106;2023-12-07T10:08:26;16.37;;;8.67;;
12725;SDS011;6427;49.754;6.106;2023-12-07T10:11:06;18.07;;;8.57;;
12725;SDS011;6427;49.754;6.106;2023-12-07T10:13:33;18.33;;;11.43;;
12725;SDS011;6427;49.754;6.106;2023-12-07T10:16:13;16.80;;;9.70;;
12725;SDS011;6427;49.754;6.106;2023-12-07T10:18:41;19.27;;;11.73;;
12725;SDS011;6427;49.754;6.106;2023-12-07T10:21:09;14.70;;;9.70;;
12725;SDS011;6427;49.754;6.106;2023-12-07T10:23:37;18.67;;;12.20;;
12725;SDS011;6427;49.754;6.106;2023-12-07T10:26:07;19.27;;;12.20;;
12725;SDS011;6427;49.754;6.106;2023-12-07T10:28:35;17.00;;;9.47;;
12725;SDS011;6427;49.754;6.106;2023-12-07T10:31:03;17.00;;;9.87;;
12725;SDS011;6427;49.754;6.106;2023-12-07T10:33:31;18.13;;;9.80;;
12725;SDS011;6427;49.754;6.106;2023-12-07T10:35:58;16.80;;;8.93;;
12725;SDS011;6427;49.754;6.106;2023-12-07T10:38:26;20.43;;;9.43;;
12725;SDS011;6427;49.754;6.106;2023-12-07T10:41:02;18.50;;;11.98;;
12725;SDS011;6427;49.754;6.106;2023-12-07T10:43:22;18.10;;;10.40;;
12725;SDS011;6427;49.754;6.106;2023-12-07T10:45:49;19.57;;;10.40;;
12725;SDS011;6427;49.754;6.106;2023-12-07T10:48:17;22.30;;;11.00;;
12725;SDS011;6427;49.754;6.106;2023-12-07T10:50:45;19.00;;;9.87;;
12725;SDS011;6427;49.754;6.106;2023-12-07T10:53:19;21.03;;;10.67;;
12725;SDS011;6427;49.754;6.106;2023-12-07T10:55:47;22.08;;;12.80;;
12725;SDS011;6427;49.754;6.106;2023-12-07T10:58:13;21.53;;;10.93;;
12725;SDS011;6427;49.754;6.106;2023-12-07T11:00:42;22.20;;;14.13;;
12725;SDS011;6427;49.754;6.106;2023-12-07T11:03:11;19.90;;;10.27;;
12725;SDS011;6427;49.754;6.106;2023-12-07T11:05:38;21.50;;;10.60;;
12725;SDS011;6427;49.754;6.106;2023-12-07T11:08:07;18.67;;;9.63;;
12725;SDS011;6427;49.754;6.106;2023-12-07T11:10:36;21.42;;;12.60;;
12725;SDS011;6427;49.754;6.106;2023-12-07T11:13:08;18.40;;;10.17;;
12725;SDS011;6427;49.754;6.106;2023-12-07T11:15:29;19.70;;;10.37;;
12725;SDS011;6427;49.754;6.106;2023-12-07T11:17:57;20.43;;;10.50;;
12725;SDS011;6427;49.754;6.106;2023-12-07T11:20:40;22.40;;;10.57;;
12725;SDS011;6427;49.754;6.106;2023-12-07T11:23:07;20.90;;;9.70;;
12725;SDS011;6427;49.754;6.106;2023-12-07T11:25:37;19.43;;;9.50;;
12725;SDS011;6427;49.754;6.106;2023-12-07T11:28:05;20.92;;;13.00;;
12725;SDS011;6427;49.754;6.106;2023-12-07T11:30:33;21.07;;;11.60;;
12725;SDS011;6427;49.754;6.106;2023-12-07T11:33:00;19.33;;;9.47;;
12725;SDS011;6427;49.754;6.106;2023-12-07T11:35:27;19.27;;;8.87;;
12725;SDS011;6427;49.754;6.106;2023-12-07T11:38:01;18.42;;;11.60;;
12725;SDS011;6427;49.754;6.106;2023-12-07T11:40:41;19.40;;;9.40;;
12725;SDS011;6427;49.754;6.106;2023-12-07T11:43:51;20.87;;;10.27;;
12725;SDS011;6427;49.754;6.106;2023-12-07T11:45:48;19.00;;;9.77;;
12725;SDS011;6427;49.754;6.106;2023-12-07T11:48:18;20.35;;;11.85;;
12725;SDS011;6427;49.754;6.106;2023-12-07T11:50:58;17.10;;;9.73;;
12725;SDS011;6427;49.754;6.106;2023-12-07T11:53:31;22.27;;;10.10;;
12725;SDS011;6427;49.754;6.106;2023-12-07T11:56:02;17.23;;;9.67;;
12725;SDS011;6427;49.754;6.106;2023-12-07T11:58:29;19.35;;;11.12;;
12725;SDS011;6427;49.754;6.106;2023-12-07T12:00:57;14.90;;;9.87;;
12725;SDS011;6427;49.754;6.106;2023-12-07T12:03:28;17.70;;;9.30;;
12725;SDS011;6427;49.754;6.106;2023-12-07T12:05:52;20.07;;;9.87;;
12725;SDS011;6427;49.754;6.106;2023-12-07T12:08:20;21.27;;;10.20;;
12725;SDS011;6427;49.754;6.106;2023-12-07T12:10:48;21.73;;;10.40;;
12725;SDS011;6427;49.754;6.106;2023-12-07T12:13:15;18.67;;;9.40;;
12725;SDS011;6427;49.754;6.106;2023-12-07T12:15:42;18.10;;;9.37;;
12725;SDS011;6427;49.754;6.106;2023-12-07T12:18:10;19.50;;;11.88;;
12725;SDS011;6427;49.754;6.106;2023-12-07T12:20:38;17.27;;;9.57;;
12725;SDS011;6427;49.754;6.106;2023-12-07T12:23:05;17.65;;;10.75;;
12725;SDS011;6427;49.754;6.106;2023-12-07T12:25:33;16.40;;;9.13;;
12725;SDS011;6427;49.754;6.106;2023-12-07T12:28:04;16.55;;;9.07;;
12725;SDS011;6427;49.754;6.106;2023-12-07T12:30:28;15.25;;;9.07;;
12725;SDS011;6427;49.754;6.106;2023-12-07T12:32:56;14.15;;;9.35;;
12725;SDS011;6427;49.754;6.106;2023-12-07T12:35:23;11.87;;;7.73;;
12725;SDS011;6427;49.754;6.106;2023-12-07T12:37:51;12.90;;;8.03;;
12725;SDS011;6427;49.754;6.106;2023-12-07T12:40:19;15.17;;;8.17;;
12725;SDS011;6427;49.754;6.106;2023-12-07T12:42:48;13.03;;;7.63;;
12725;SDS011;6427;49.754;6.106;2023-12-07T12:45:18;12.97;;;7.90;;
12725;SDS011;6427;49.754;6.106;2023-12-07T12:47:47;15.23;;;7.67;;
12725;SDS011;6427;49.754;6.106;2023-12-07T12:50:32;14.30;;;8.43;;
12725;SDS011;6427;49.754;6.106;2023-12-07T12:53:06;15.30;;;9.82;;
12725;SDS011;6427;49.754;6.106;2023-12-07T12:55:38;13.47;;;8.63;;
12725;SDS011;6427;49.754;6.106;2023-12-07T12:58:01;13.83;;;7.53;;
12725;SDS011;6427;49.754;6.106;2023-12-07T13:00:28;11.67;;;7.43;;
12725;SDS011;6427;49.754;6.106;2023-12-07T13:02:56;15.37;;;8.67;;
12725;SDS011;6427;49.754;6.106;2023-12-07T13:05:23;12.57;;;8.00;;
12725;SDS011;6427;49.754;6.106;2023-12-07T13:07:51;15.63;;;8.63;;
12725;SDS011;6427;49.754;6.106;2023-12-07T13:10:18;13.83;;;8.30;;
12725;SDS011;6427;49.754;6.106;2023-12-07T13:12:46;15.83;;;7.63;;
12725;SDS011;6427;49.754;6.106;2023-12-07T13:15:14;14.93;;;7.63;;
12725;SDS011;6427;49.754;6.106;2023-12-07T13:17:42;14.03;;;7.83;;
12725;SDS011;6427;49.754;6.106;2023-12-07T13:20:09;13.73;;;8.17;;
12725;SDS011;6427;49.754;6.106;2023-12-07T13:22:40;11.50;;;7.20;;
12725;SDS011;6427;49.754;6.106;2023-12-07T13:25:07;13.77;;;7.07;;
12725;SDS011;6427;49.754;6.106;2023-12-07T13:27:35;13.43;;;7.50;;
12725;SDS011;6427;49.754;6.106;2023-12-07T13:30:02;11.33;;;7.23;;
12725;SDS011;6427;49.754;6.106;2023-12-07T13:32:33;12.90;;;7.13;;
12725;SDS011;6427;49.754;6.106;2023-12-07T13:35:00;11.47;;;6.27;;
12725;SDS011;6427;49.754;6.106;2023-12-07T13:37:28;11.23;;;7.00;;
12725;SDS011;6427;49.754;6.106;2023-12-07T13:39:56;13.07;;;6.83;;
12725;SDS011;6427;49.754;6.106;2023-12-07T13:42:24;14.57;;;6.67;;
12725;SDS011;6427;49.754;6.106;2023-12-07T13:44:54;10.40;;;6.33;;
12725;SDS011;6427;49.754;6.106;2023-12-07T13:47:22;11.15;;;7.75;;
12725;SDS011;6427;49.754;6.106;2023-12-07T13:49:49;9.67;;;6.60;;
12725;SDS011;6427;49.754;6.106;2023-12-07T13:52:18;13.27;;;6.40;;
12725;SDS011;6427;49.754;6.106;2023-12-07T13:54:45;13.13;;;6.70;;
12725;SDS011;6427;49.754;6.106;2023-12-07T13:57:13;16.40;;;6.80;;
12725;SDS011;6427;49.754;6.106;2023-12-07T13:59:40;9.43;;;5.30;;
12725;SDS011;6427;49.754;6.106;2023-12-07T14:02:08;13.33;;;6.53;;
12725;SDS011;6427;49.754;6.106;2023-12-07T14:04:36;12.10;;;7.87;;
12725;SDS011;6427;49.754;6.106;2023-12-07T14:07:07;10.20;;;6.43;;
12725;SDS011;6427;49.754;6.106;2023-12-07T14:09:39;10.67;;;6.13;;
12725;SDS011;6427;49.754;6.106;2023-12-07T14:12:06;9.90;;;7.22;;
12725;SDS011;6427;49.754;6.106;2023-12-07T14:14:33;9.63;;;5.93;;
12725;SDS011;6427;49.754;6.106;2023-12-07T14:17:01;10.52;;;7.53;;
12725;SDS011;6427;49.754;6.106;2023-12-07T14:19:29;9.93;;;6.80;;
12725;SDS011;6427;49.754;6.106;2023-12-07T14:21:57;10.77;;;6.30;;
12725;SDS011;6427;49.754;6.106;2023-12-07T14:24:24;11.93;;;6.07;;
12725;SDS011;6427;49.754;6.106;2023-12-07T14:26:53;14.37;;;6.30;;
12725;SDS011;6427;49.754;6.106;2023-12-07T14:29:20;9.67;;;6.30;;
12725;SDS011;6427;49.754;6.106;2023-12-07T14:31:47;9.97;;;6.43;;
12725;SDS011;6427;49.754;6.106;2023-12-07T14:34:15;8.93;;;5.87;;
12725;SDS011;6427;49.754;6.106;2023-12-07T14:36:43;13.05;;;7.87;;
12725;SDS011;6427;49.754;6.106;2023-12-07T14:39:13;12.53;;;6.93;;
12725;SDS011;6427;49.754;6.106;2023-12-07T14:41:46;9.70;;;6.20;;
12725;SDS011;6427;49.754;6.106;2023-12-07T14:44:17;10.30;;;6.20;;
12725;SDS011;6427;49.754;6.106;2023-12-07T14:46:45;11.40;;;6.27;;
12725;SDS011;6427;49.754;6.106;2023-12-07T14:49:13;9.90;;;5.80;;
12725;SDS011;6427;49.754;6.106;2023-12-07T14:51:40;12.32;;;7.87;;
12725;SDS011;6427;49.754;6.106;2023-12-07T14:54:07;11.43;;;6.70;;
12725;SDS011;6427;49.754;6.106;2023-12-07T14:56:35;12.73;;;6.83;;